Chuxiong, China
Current Conditions -  °F | °C
As of 5:00 AM on Wednesday 22 Oct 2014 (Local Time) from ZPPP Reporting Station
Broken Clouds Broken Clouds  
Wind Chill: 52°   Ceiling: 3600
Heat Index: 52°   Visibility: 4mi
Dew Point: 52°   Wind: 2mph
Humidity: 100%   Direction: NA
Pressure: 30.36"   Gusts: NA
Location:  25.02°N, 101.53°E
Report Text: ZPPP 212100Z VRB01MPS 6000 SCT020 BKN036 11/11 Q1028 NOSIG
Loading
Personal Weather Stations






























Interactive Weather Map
Tropical Storm Tracking
New forecast layout! Learn more

10-Day Weather Forecast

Advertisements
Track Severe Weather on mobile